x

Fred Howard Park, Fl (fhpf1) Weather Station

11:54pm - Fri 17th Nov 2017 All times are EST. -5 hours from GMT.

  • Wind
    5mph, 7mph gusts
  • Air Temp 57°f
  • Sea Pressure 1018.8mb
  • Fred Howard Park, Fl
  • Fred Howard Park, Fl

More Historic Weather Station data

Upgrade to MSW Pro to gain access to the past 30 days of data for over 8000 Wavebouys and Weather Stations around the globe.

Join

Comparision Forecast

View Surf forecast
   
Fri 11/17 11:54pm 5 7 mph 1018.8mb 57f
11:48pm 5 6 mph 1018.5mb -
10:54pm 6 7 mph 1018.5mb -
10:48pm 6 7 mph 1021.4mb -
9:54pm 8 10 mph 1018.9mb 67f
9:48pm 9 13 mph 1018.9mb 69f
8:54pm 10 13 mph 1018.9mb 68f
8:48pm 11 14 mph 1018.9mb 68f
7:54pm 11 13 mph 1018.8mb 68f
7:48pm 13 15 mph 1018.8mb 69f
6:54pm 10 13 mph 1018.4mb 69f
6:48pm 10 13 mph 1018.4mb 69f
5:54pm 10 13 mph 1018mb 69f
5:48pm 11 13 mph 1018mb 69f
4:54pm 11 13 mph 1018.1mb 70f
4:48pm 11 14 mph 1018.1mb 70f
3:54pm 11 13 mph 1017.9mb 70f
3:48pm 11 13 mph 1017.9mb 70f
2:54pm 10 11 mph 1018.1mb 70f
2:48pm 10 13 mph 1018.1mb 70f
1:54pm 14 16 mph 1019mb 69f
1:48pm 14 15 mph 1019mb 69f
12:54pm 13 15 mph 1019.6mb 69f
12:48pm 15 16 mph 1019.6mb 69f
11:54am 8 11 mph 1020.1mb 69f
10:54am 8 11 mph 1020.4mb 69f
10:48am 9 10 mph 1020.5mb 69f
9:54am 8 11 mph 1020.8mb 67f
9:48am 8 11 mph 1020.7mb 66f
8:54am 9 14 mph 1020.6mb 64f
8:48am 9 11 mph 1020.5mb 63f
7:54am 8 10 mph 1020.3mb -
7:48am 8 9 mph 1020.2mb -
6:54am 8 9 mph 1019.7mb -
6:48am 8 9 mph 1019.7mb -
5:54am 8 9 mph 1019.3mb -
5:48am 7 8 mph 1019.3mb -
4:54am 7 8 mph 1018.5mb -
4:48am 7 9 mph 1019.2mb -
3:54am 7 8 mph 1019.1mb -
3:48am 7 9 mph 1019.1mb -
2:54am 7 8 mph 1019.2mb -
2:48am 6 8 mph 1019.3mb -
1:54am 7 8 mph 1019.1mb 67f
1:48am 8 9 mph 1019.2mb -
12:54am 9 11 mph 1019.1mb 61f
12:48am 9 11 mph 1019.1mb 55f
Thu 11/16 11:54pm 9 11 mph 1019.3mb 63f
11:48pm 9 11 mph 1019.3mb 64f
10:54pm 9 9 mph 1019.2mb 65f
10:48pm 9 10 mph 1019.3mb 65f
9:54pm 7 9 mph 1019.3mb 65f
9:48pm 7 9 mph 1019.3mb 66f
8:54pm 7 9 mph 1019mb 68f
8:48pm 8 9 mph 1018.9mb 69f
7:54pm 7 9 mph 1018.5mb 68f
7:48pm 8 10 mph 1018.4mb 69f
6:54pm 11 15 mph 1018.1mb 69f
6:48pm 11 14 mph 1018mb 69f
5:54pm 13 16 mph 1017.6mb 69f
5:48pm 14 15 mph 1017.6mb 69f
4:54pm 15 17 mph 1016.9mb 69f
4:48pm 15 17 mph 1016.9mb 69f
3:54pm 16 21 mph 1016.8mb 68f
3:48pm 17 18 mph 1016.8mb 68f
2:54pm 16 20 mph 1016.8mb 67f
2:48pm 16 18 mph 1016.8mb 67f
1:54pm 15 17 mph 1017mb 68f
1:48pm 15 17 mph 1017mb 69f
12:54pm 15 17 mph 1017.7mb 63f
12:48pm 15 17 mph 1017.8mb 68f
11:54am 18 23 mph 1018.7mb 65f
11:48am 17 20 mph 1018.7mb 65f
10:54am 13 15 mph 1019.3mb 62f
10:48am 11 13 mph 1019.4mb 61f
9:54am 13 14 mph 1019.7mb 60f
9:48am 13 14 mph 1019.7mb -
8:54am 8 10 mph 1019.6mb 64f
8:48am 8 10 mph 1019.5mb 63f
7:54am 8 11 mph 1018.5mb 61f
7:48am 9 10 mph 1018.4mb 61f
6:54am 10 13 mph 1019mb 62f
6:48am 9 11 mph 1019mb 62f
5:54am 13 17 mph 1018.5mb 56f
4:54am 11 14 mph 1017.5mb -
4:48am 11 14 mph 1017.5mb -
3:54am 10 13 mph 1017mb -
2:54am 7 10 mph 1017.1mb -
2:48am 10 13 mph 1017.3mb -
1:54am 9 11 mph 1017.9mb -
1:48am 8 10 mph 1017.5mb -
12:54am 9 11 mph 1017.7mb 60f
12:48am 10 13 mph 1017.8mb 60f
Wed 11/15 11:54pm 9 10 mph 1017.3mb 61f
11:48pm 9 11 mph 1017.9mb 61f
10:54pm 10 13 mph 1018.1mb 72f
10:48pm 10 13 mph 1022mb 70f
9:54pm 13 16 mph 1018.1mb 61f
8:54pm 10 13 mph 1017.7mb 66f
8:48pm 10 13 mph 1017.6mb 66f
7:54pm 13 17 mph 1017.2mb 67f
7:48pm 13 17 mph 1017.1mb 65f
6:54pm 17 22 mph 1016.8mb 70f
6:48pm 16 20 mph 1016.7mb 70f
5:54pm 17 21 mph 1016.6mb 70f
5:48pm 18 22 mph 1016.7mb 69f
4:54pm 18 22 mph - -
4:48pm 18 22 mph - -
3:54pm 16 20 mph 1015.9mb 73f
3:48pm 17 21 mph 1015.8mb 71f
2:54pm 18 22 mph 1027.8mb -
2:48pm 18 21 mph - -
1:54pm 15 17 mph - -
1:48pm 15 17 mph - -
12:54pm 14 15 mph 1016.5mb 69f
12:48pm 14 16 mph 1016.6mb 69f
11:54am 10 11 mph 1017.4mb 69f
10:54am 11 16 mph 1018.5mb 68f
10:48am 9 13 mph 1020.6mb 68f
9:54am 11 14 mph 1018.5mb -
9:48am 13 15 mph 1018.6mb 63f
8:54am 14 21 mph - -
8:48am 13 21 mph - -
7:54am 11 14 mph 1018.3mb 57f
6:54am 13 15 mph 1017.9mb 56f
6:48am 11 15 mph 1017.8mb 57f
5:54am 13 17 mph 1017.5mb 58f